Latest Weather Observations for White Cliffs AWS

IDN60801

Issued at 8:52 pm EDT Monday 21 October 2019 (issued every 10 minutes, with the page automatically refreshed every 10 minutes)

About weather observations | Map of weather stations | Latest weather observations for NSW | Other Formats
Station Details ID: 046129 Name: WHITE CLIFFS AWS Lat: -30.85 Lon: 143.07 Height: 158.0 m
Data from the previous 72 hours. | See also: Recent months at White Cliffs AWS
Date/Time
EDT
Temp
°C
App
Temp
°C
Dew
Point
°C
Rel
Hum
%
Delta-T
°C
Wind Press
QNH
hPa
Press
MSL
hPa
Rain since
9am
mm
Dir  Spd
km/h
Gust
km/h
Spd
kts
Gust
kts
21/08:30pm 24.6 20.3 -2.0 17 11.8 SSE 11 13 6 7 1022.7 1022.2 0.0
21/08:00pm 25.7 21.0 -2.0 16 12.4 SSE 13 17 7 9 1022.6 1022.1 0.0
21/07:30pm 26.3 21.6 -1.5 16 12.7 SSE 13 19 7 10 1022.3 1021.8 0.0
21/07:00pm 27.0 21.5 -1.8 15 13.1 SE 17 22 9 12 1022.2 1021.7 0.0
21/06:30pm 27.0 22.3 -1.8 15 13.1 ESE 13 20 7 11 1022.0 1021.5 0.0
21/06:00pm 27.5 22.1 -1.4 15 13.3 ESE 17 20 9 11 1021.8 1021.3 0.0
21/05:30pm 27.3 21.2 -2.5 14 13.4 SE 20 26 11 14 1021.9 1021.4 0.0
21/05:00pm 28.1 22.6 -1.9 14 13.7 SSE 17 30 9 16 1022.1 1021.6 0.0
21/04:30pm 27.1 21.7 -1.7 15 13.2 ESE 17 28 9 15 1022.2 1021.7 0.0
21/04:00pm 27.6 22.2 -1.3 15 13.3 ESE 17 32 9 17 1022.5 1022.0 0.0
21/03:30pm 26.9 21.4 -1.9 15 13.1 SE 17 26 9 14 1022.9 1022.4 0.0
21/03:00pm 26.8 20.9 -2.0 15 13.0 SE 19 32 10 17 1023.4 1022.8 0.0
21/02:30pm 25.7 20.6 -2.0 16 12.4 ESE 15 26 8 14 1023.8 1023.2 0.0
21/02:00pm 24.9 20.3 -1.0 18 11.7 SE 13 24 7 13 1024.2 1023.6 0.0
21/01:30pm 25.0 19.7 -0.9 18 11.8 SE 17 24 9 13 1024.6 1024.0 0.0
21/01:00pm 24.4 18.7 -0.7 19 11.4 ESE 19 28 10 15 1025.0 1024.4 0.0
21/12:30pm 23.0 17.1 -0.5 21 10.6 SE 20 30 11 16 1025.5 1024.9 0.0
21/12:00pm 22.9 16.3 -0.6 21 10.5 ESE 24 35 13 19 1025.6 1025.0 0.0
21/11:30am 22.0 15.4 -0.1 23 10.0 ESE 24 32 13 17 1025.9 1025.3 0.0
21/11:00am 22.0 15.6 1.1 25 9.6 ESE 24 32 13 17 1026.3 1025.8 0.0
21/10:30am 21.2 15.2 1.0 26 9.3 E 22 33 12 18 1026.6 1026.1 0.0
21/10:00am 19.9 14.2 0.4 27 8.7 ESE 20 26 11 14 1026.8 1026.3 0.0
21/09:30am 18.9 13.2 0.5 29 8.2 ESE 20 26 11 14 1027.0 1026.5 0.0
21/09:00am 18.6 13.0 1.2 31 7.8 ESE 20 26 11 14 1027.0 1026.5 0.0
21/08:30am 17.1 11.4 0.3 32 7.3 ESE 20 26 11 14 1026.9 1026.4 0.0
21/08:00am 14.9 10.7 -1.2 33 6.6 SSE 11 15 6 8 1026.9 1026.4 0.0
21/07:30am 12.2 7.7 -3.2 34 5.9 SSW 11 11 6 6 1026.8 1026.3 0.0
21/07:00am 11.7 6.8 -3.2 35 5.7 S 13 17 7 9 1026.3 1025.8 0.0
21/06:30am 11.7 7.5 -3.6 34 5.8 SSE 9 11 5 6 1025.9 1025.3 0.0
21/06:00am 14.0 9.3 -1.6 34 6.3 SE 13 19 7 10 1025.3 1024.7 0.0
21/05:30am 13.9 9.6 -1.7 34 6.3 ESE 11 13 6 7 1025.2 1024.6 0.0
21/05:00am 15.9 10.0 -0.8 32 7.0 SE 20 26 11 14 1024.9 1024.3 0.0
21/04:30am 16.1 10.2 -0.6 32 7.1 SE 20 24 11 13 1024.8 1024.2 0.0
21/04:00am 15.0 9.6 -1.5 32 6.8 SSE 17 20 9 11 1025.0 1024.4 0.0
21/03:30am 15.2 9.7 -1.8 31 7.0 SSE 17 22 9 12 1025.0 1024.4 0.0
21/03:00am 15.8 10.4 -1.3 31 7.1 SSE 17 22 9 12 1025.1 1024.5 0.0
21/02:30am 15.2 9.6 -3.2 28 7.3 SSE 17 19 9 10 1025.3 1024.7 0.0
21/02:00am 15.3 9.7 -3.1 28 7.3 SSE 17 20 9 11 1025.4 1024.8 0.0
21/01:30am 15.3 9.6 -4.1 26 7.6 SSE 17 20 9 11 1025.6 1025.0 0.0
21/01:00am 15.7 10.0 -3.7 26 7.6 SSE 17 20 9 11 1025.9 1025.3 0.0
21/12:30am 16.2 10.5 -3.8 25 7.9 SSE 17 19 9 10 1026.0 1025.4 0.0
21/12:00am 16.5 11.1 -4.1 24 8.1 SSE 15 17 8 9 1026.1 1025.5 0.0
 
Date/Time
EDT
Temp
°C
App
Temp
°C
Dew
Point
°C
Rel
Hum
%
Delta-T
°C
Wind Press
QNH
hPa
Press
MSL
hPa
Rain since
9am
mm
Dir  Spd
km/h
Gust
km/h
Spd
kts
Gust
kts
20/11:30pm 16.8 11.5 -3.9 24 8.3 SSE 15 17 8 9 1026.1 1025.5 0.0
20/11:00pm 17.5 11.9 -3.3 24 8.4 SSE 17 19 9 10 1026.1 1025.5 0.0
20/10:30pm 17.6 12.7 -3.2 24 8.5 SSE 13 15 7 8 1026.3 1025.8 0.0
20/10:00pm 18.0 13.1 -3.4 23 8.7 SSE 13 17 7 9 1026.1 1025.5 0.0
20/09:30pm 18.7 13.4 -3.4 22 9.1 SSE 15 17 8 9 1025.8 1025.2 0.0
20/09:00pm 19.3 13.2 -3.5 21 9.3 S 19 22 10 12 1025.6 1025.0 0.0
20/08:30pm 19.8 13.8 -3.1 21 9.6 S 19 24 10 13 1025.1 1024.5 0.0
20/08:00pm 20.4 13.8 -3.3 20 9.9 S 22 26 12 14 1024.8 1024.2 0.0
20/07:30pm 21.0 14.8 -2.8 20 10.1 S 20 30 11 16 1024.4 1023.8 0.0
20/07:00pm 21.3 14.8 -2.5 20 10.1 SSE 22 28 12 15 1024.2 1023.6 0.0
20/06:30pm 22.0 15.2 -2.0 20 10.5 S 24 30 13 16 1023.9 1023.3 0.0
20/06:00pm 22.4 15.9 -2.3 19 10.7 SSE 22 33 12 18 1023.7 1023.1 0.0
20/05:30pm 22.0 15.6 -2.0 20 10.5 S 22 32 12 17 1023.6 1023.0 0.0
20/05:00pm 22.5 16.5 -1.6 20 10.6 S 20 32 11 17 1023.5 1022.9 0.0
20/04:30pm 22.6 16.2 -1.5 20 10.7 S 22 33 12 18 1023.7 1023.1 0.0
20/04:00pm 21.5 15.5 -1.7 21 10.1 S 20 35 11 19 1023.8 1023.2 0.0
20/03:30pm 20.9 14.9 -1.6 22 9.8 SSE 20 33 11 18 1024.1 1023.5 0.0
20/03:00pm 21.3 16.0 -0.6 23 9.7 SSE 17 26 9 14 1024.4 1023.8 0.0
20/02:30pm 21.5 15.8 0.7 25 9.5 S 20 28 11 15 1024.7 1024.1 0.0
20/02:00pm 20.7 14.6 0.5 26 9.1 SSE 22 35 12 19 1025.0 1024.4 0.0
20/01:30pm 20.2 14.5 0.6 27 8.8 SSE 20 30 11 16 1025.2 1024.6 0.0
20/01:00pm 19.1 13.5 0.2 28 8.3 S 19 28 10 15 1025.5 1024.9 0.0
20/12:30pm 19.2 13.8 1.2 30 8.2 S 19 30 10 16 1025.9 1025.3 0.0
20/12:00pm 18.3 12.7 0.9 31 7.7 SSE 20 33 11 18 1026.3 1025.8 0.0
20/11:30am 17.9 12.3 1.0 32 7.5 SSE 20 32 11 17 1026.7 1026.2 0.0
20/11:00am 17.9 11.6 1.4 33 7.4 SSE 24 35 13 19 1026.9 1026.4 0.0
20/10:30am 16.5 10.2 1.4 36 6.7 SSE 24 32 13 17 1027.2 1026.7 0.0
20/10:00am 16.3 10.0 1.6 37 6.5 SE 24 32 13 17 1027.2 1026.7 0.0
20/09:30am 15.4 7.6 1.9 40 6.0 SE 32 37 17 20 1027.1 1026.6 0.0
20/09:00am 14.6 7.2 1.8 42 5.6 SSE 30 37 16 20 1026.9 1026.4 0.0
20/08:30am 14.0 6.2 1.6 43 5.4 SSE 32 41 17 22 1026.6 1026.1 0.0
20/08:00am 13.3 5.8 1.0 43 5.2 S 30 39 16 21 1026.2 1025.6 0.0
20/07:30am 12.4 5.5 0.2 43 5.1 S 26 35 14 19 1025.7 1025.1 0.0
20/07:00am 11.9 5.3 -0.3 43 5.0 S 24 30 13 16 1025.1 1024.5 0.0
20/06:30am 12.1 5.5 -0.7 41 5.2 S 24 30 13 16 1024.6 1024.0 0.0
20/06:00am 12.4 5.4 -0.8 40 5.4 S 26 32 14 17 1024.1 1023.5 0.0
20/05:30am 12.7 5.9 -1.6 37 5.7 S 24 28 13 15 1023.7 1023.1 0.0
20/05:00am 13.0 6.9 -2.1 35 6.0 S 20 26 11 14 1023.5 1022.9 0.0
20/04:30am 13.4 7.3 -2.1 34 6.2 S 20 28 11 15 1023.4 1022.8 0.0
20/04:00am 13.9 7.8 -2.1 33 6.4 S 20 26 11 14 1023.3 1022.7 0.0
20/03:30am 14.2 8.1 -2.2 32 6.6 S 20 24 11 13 1023.2 1022.6 0.0
20/03:00am 14.9 8.0 -2.5 30 7.0 S 24 30 13 16 1023.3 1022.7 0.0
20/02:30am 15.4 9.3 -2.5 29 7.2 S 20 26 11 14 1023.2 1022.6 0.0
20/02:00am 15.7 9.6 -2.7 28 7.4 SSE 20 26 11 14 1023.2 1022.6 0.0
20/01:30am 15.8 9.8 -3.1 27 7.6 SSE 19 24 10 13 1023.4 1022.8 0.0
20/01:00am 16.4 10.5 -2.6 27 7.7 SSE 19 22 10 12 1023.3 1022.7 0.0
20/12:30am 16.8 10.9 -2.3 27 7.9 SSE 19 22 10 12 1023.3 1022.7 0.0
20/12:00am 17.2 11.1 -2.4 26 8.1 SSE 20 30 11 16 1023.0 1022.5 0.0
 
Date/Time
EDT
Temp
°C
App
Temp
°C
Dew
Point
°C
Rel
Hum
%
Delta-T
°C
Wind Press
QNH
hPa
Press
MSL
hPa
Rain since
9am
mm
Dir  Spd
km/h
Gust
km/h
Spd
kts
Gust
kts
19/11:30pm 17.7 10.9 -2.0 26 8.2 SSE 24 32 13 17 1022.9 1022.4 0.0
19/11:00pm 18.2 11.8 -1.6 26 8.4 SSE 22 30 12 16 1022.8 1022.3 0.0
19/10:30pm 18.7 11.7 -0.7 27 8.4 SSE 26 35 14 19 1022.6 1022.1 0.0
19/10:00pm 19.3 12.7 -0.7 26 8.7 S 24 35 13 19 1022.3 1021.8 0.0
19/09:30pm 20.1 12.9 -1.7 23 9.4 S 26 35 14 19 1021.9 1021.4 0.0
19/09:00pm 20.7 13.0 -3.0 20 10.0 SSW 28 33 15 18 1021.3 1020.8 0.0
19/08:30pm 21.3 12.5 -4.0 18 10.5 SSW 33 43 18 23 1020.6 1020.0 0.0
19/08:00pm 22.0 12.8 -4.1 17 10.9 SSW 35 43 19 23 1020.0 1019.4 0.0
19/07:30pm 23.1 13.7 -2.5 18 11.1 SSW 37 46 20 25 1019.4 1018.8 0.0
19/07:00pm 24.3 14.8 -0.8 19 11.4 SSW 39 52 21 28 1018.7 1018.1 0.0
19/06:30pm 25.8 17.3 1.2 20 11.7 SW 35 48 19 26 1018.0 1017.4 0.0
19/06:12pm 26.3 19.4 2.3 21 11.7 SW 28 48 15 26 1017.8 1017.2 0.0
19/06:00pm 26.0 18.7 2.7 22 11.4 SW 30 39 16 21 1017.8 1017.2 0.0
19/05:30pm 26.8 19.2 2.7 21 11.9 SW 32 50 17 27 1017.6 1017.0 0.0
19/05:25pm 27.1 19.3 2.9 21 12.0 SW 33 50 18 27 1017.5 1016.9 0.0
19/05:00pm 27.3 18.6 1.7 19 12.4 WSW 37 57 20 31 1017.5 1016.9 0.0
19/04:34pm 28.0 19.2 1.5 18 12.9 WSW 37 57 20 31 1017.3 1016.7 0.0
19/04:30pm 27.7 19.6 1.2 18 12.8 WSW 33 50 18 27 1017.4 1016.8 0.0
19/04:00pm 28.6 19.3 0.3 16 13.5 WSW 39 57 21 31 1017.4 1016.8 0.0
19/03:37pm 29.0 20.8 -1.2 14 14.1 WSW 32 52 17 28 1017.3 1016.7 0.0
19/03:30pm 28.6 20.6 0.3 16 13.5 WSW 32 46 17 25 1017.5 1016.9 0.0
19/03:16pm 28.9 21.4 -1.2 14 14.1 WSW 28 46 15 25 1017.6 1017.0 0.0
19/03:00pm 30.1 21.9 -1.3 13 14.7 WSW 32 46 17 25 1017.7 1017.1 0.0
19/02:31pm 29.0 21.8 0.7 16 13.7 SW 28 48 15 26 1017.9 1017.3 0.0
19/02:30pm 28.9 21.9 -0.3 15 13.9 SW 26 48 14 26 1017.9 1017.3 0.0
19/02:00pm 27.2 22.5 0.8 18 12.6 W 15 28 8 15 1018.2 1017.6 0.0
19/01:30pm 26.9 21.3 -0.2 17 12.7 SW 19 32 10 17 1018.4 1017.8 0.0
19/01:00pm 26.4 22.2 -0.6 17 12.5 SSW 11 26 6 14 1018.9 1018.3 0.0
19/12:30pm 26.0 20.4 -0.1 18 12.2 SW 19 30 10 16 1019.3 1018.7 0.0
19/12:00pm 26.7 21.5 0.4 18 12.4 SSW 17 24 9 13 1019.6 1019.0 0.0
19/11:30am 24.7 21.3 -0.4 19 11.5 SSW 7 11 4 6 1019.6 1019.0 0.0
19/11:00am 24.2 20.1 -0.2 20 11.2 SE 11 17 6 9 1019.5 1018.9 0.0
19/10:30am 22.9 18.3 -1.2 20 10.7 S 13 17 7 9 1019.8 1019.2 0.0
19/10:00am 22.3 17.6 -1.7 20 10.5 SSE 13 17 7 9 1019.8 1019.2 0.0
19/09:30am 21.1 16.2 -3.4 19 10.3 S 13 17 7 9 1019.6 1019.0 0.0
19/09:00am 20.2 14.8 -4.1 19 10.0 SSW 15 19 8 10 1019.4 1018.8 0.0
19/08:30am 18.9 15.7 -7.4 16 10.0 NW 2 7 1 4 1019.0 1018.4 0.0
19/08:00am 17.2 13.9 -8.8 16 9.4 ESE 2 7 1 4 1018.7 1018.1 0.0
19/07:30am 15.2 9.7 -9.7 17 8.6 SSW 13 13 7 7 1018.3 1017.7 0.0
19/07:00am 14.0 8.4 -10.6 17 8.2 SW 13 15 7 8 1017.9 1017.3 0.0
19/06:30am 14.2 7.9 -10.5 17 8.3 SW 17 19 9 10 1017.7 1017.1 0.0
19/06:00am 14.6 8.3 -10.1 17 8.4 SSW 17 19 9 10 1017.2 1016.6 0.0
19/05:30am 15.9 10.1 -9.1 17 8.8 SSW 15 24 8 13 1016.8 1016.2 0.0
19/05:00am 13.0 6.9 -12.2 16 8.0 WNW 15 15 8 8 1016.6 1016.0 0.0
19/04:30am 13.4 7.4 -11.9 16 8.1 WNW 15 15 8 8 1016.5 1015.9 0.0
19/04:00am 13.7 8.4 -11.6 16 8.2 WNW 11 13 6 7 1016.5 1015.9 0.0
19/03:30am 15.0 8.6 -11.4 15 8.8 WNW 17 19 9 10 1016.3 1015.8 0.0
19/03:00am 14.6 8.6 -11.7 15 8.6 WNW 15 17 8 9 1016.5 1015.9 0.0
19/02:30am 15.1 9.1 -11.3 15 8.8 WNW 15 17 8 9 1016.6 1016.0 0.0
19/02:00am 16.2 10.6 -11.3 14 9.3 NW 13 15 7 8 1016.6 1016.0 0.0
19/01:30am 16.2 10.1 -12.2 13 9.4 WNW 15 15 8 8 1017.0 1016.4 0.0
19/01:00am 16.1 10.0 -12.3 13 9.4 WNW 15 17 8 9 1017.2 1016.6 0.0
19/12:30am 15.9 9.8 -12.4 13 9.3 WNW 15 15 8 8 1017.4 1016.8 0.0
19/12:00am 16.9 10.8 -12.6 12 9.8 WNW 15 17 8 9 1017.6 1017.0 0.0
 
Date/Time
EDT
Temp
°C
App
Temp
°C
Dew
Point
°C
Rel
Hum
%
Delta-T
°C
Wind Press
QNH
hPa
Press
MSL
hPa
Rain since
9am
mm
Dir  Spd
km/h
Gust
km/h
Spd
kts
Gust
kts
18/11:30pm 17.7 11.3 -12.0 12 10.1 WNW 17 19 9 10 1017.5 1016.9 0.0
18/11:00pm 17.9 12.2 -12.9 11 10.3 WNW 13 15 7 8 1017.8 1017.2 0.0
18/10:30pm 19.0 12.5 -13.3 10 10.9 WNW 17 17 9 9 1017.7 1017.1 0.0
18/10:00pm 19.6 13.5 -12.8 10 11.1 WNW 15 17 8 9 1017.6 1017.0 0.0
18/09:30pm 20.4 14.3 -13.5 9 11.6 WNW 15 17 8 9 1017.4 1016.8 0.0
18/09:00pm 21.4 15.3 -12.7 9 11.9 WNW 15 15 8 8 1017.1 1016.5 0.0

Other formats

Comma delimited format used in spreadsheet applications
http://www.bom.gov.au/fwo/IDN60801/IDN60801.95699.axf

JavaScript Object Notation format (JSON) in row-major order
http://www.bom.gov.au/fwo/IDN60801/IDN60801.95699.json

Data quality

Most of these data are generated automatically and are frequently updated. Quality checks on data are not normally performed. It is possible for incorrect values to appear. Refer to information at About Latest Weather Observations and please check the disclaimer before using these data.